»·PEaware :: UAL230 KLAS-KDEN

UAL230 :: KLAS-KDEN

FLIGHT INFORMATION

Flight Status: Arrived
Operator:
United Airlines
More flights by this operator :: More flights under this callsign
Pilot: Saso K. (7898)
Aircraft: AIRBUS A320
(A320)
More flights by this aircraft type
Origin: KLAS McCarran Intl
United States
Destination: KDEN Denver Intl
United States
More flights between these airports :: More routes between these airports
Route: LAS4 DVC WOLLF TELLR2
File this flight plan on PilotEdge
Remarks: EET / KZDV0029
Altitude:
(Current/Filed)
35,000ft
Speed:
(Current/Filed)
436kts
Departed: 03-Jun-17 05:19 PM
Arrived: 03-Jun-17 06:50 PM
Distance/Time
Traveled:
544nm/1:31
Distance/Time
To Go:
Arrived

Flight Plot

Page will automatically refresh every two minutes.

Flight plan parsing failed; only flown route is shown


Map Options




Map Legend


Flown Route
Filed Route
Departure Airport
Arrival Airport
Navaid (VOR, NDB)
Fix

Horizontal Profiles

Position Reports

Time Latitude Longitude Heading Altitude Ground
Speed
03-Jun-17 16:45 36.082938 -115.138764 226 2065ft 0kts
03-Jun-17 16:46 36.082938 -115.138764 226 2065ft 0kts
03-Jun-17 16:47 36.082938 -115.138764 226 2065ft 0kts
03-Jun-17 16:48 36.082938 -115.138764 226 2065ft 0kts
03-Jun-17 16:49 36.082938 -115.138764 226 2065ft 0kts
03-Jun-17 16:50 36.082938 -115.138764 226 2065ft 0kts
03-Jun-17 16:51 36.082938 -115.138764 226 2065ft 0kts
03-Jun-17 16:52 36.082938 -115.138764 226 2065ft 0kts
03-Jun-17 16:53 36.082938 -115.138764 226 2065ft 0kts
03-Jun-17 16:54 36.082938 -115.138764 226 2065ft 0kts
03-Jun-17 16:55 36.082938 -115.138764 226 2065ft 0kts
03-Jun-17 16:56 36.082938 -115.138764 226 2065ft 0kts
03-Jun-17 16:57 36.082938 -115.138764 226 2065ft 0kts
03-Jun-17 16:58 36.082938 -115.138764 226 2065ft 0kts
03-Jun-17 16:59 36.082938 -115.138764 226 2065ft 0kts
03-Jun-17 17:00 36.082938 -115.138764 226 2065ft 0kts
03-Jun-17 17:01 36.082938 -115.138764 226 2065ft 0kts
03-Jun-17 17:02 36.082938 -115.138764 226 2065ft 0kts
03-Jun-17 17:03 36.082938 -115.138764 226 2065ft 0kts
03-Jun-17 17:04 36.082938 -115.138764 226 2065ft 0kts
03-Jun-17 17:05 36.083194 -115.138425 226 2063ft 2kts
03-Jun-17 17:06 36.083560 -115.137945 226 2061ft 0kts
03-Jun-17 17:07 36.083560 -115.137945 226 2061ft 0kts
03-Jun-17 17:08 36.083560 -115.137945 226 2061ft 0kts
03-Jun-17 17:09 36.083560 -115.137945 226 2061ft 0kts
03-Jun-17 17:10 36.083588 -115.138066 320 2062ft 2kts
03-Jun-17 17:11 36.084195 -115.139889 268 2067ft 5kts
03-Jun-17 17:12 36.082870 -115.142226 223 2076ft 8kts
03-Jun-17 17:13 36.079464 -115.142496 179 2085ft 10kts
03-Jun-17 17:14 36.078666 -115.142510 178 2087ft 8kts
03-Jun-17 17:15 36.078374 -115.145273 276 2096ft 10kts
03-Jun-17 17:16 36.077872 -115.148724 274 2108ft 14kts
03-Jun-17 17:17 36.078026 -115.154404 270 2130ft 16kts
03-Jun-17 17:18 36.078016 -115.160632 270 2152ft 9kts
03-Jun-17 17:19 36.077518 -115.161247 184 2155ft 0kts
03-Jun-17 17:20 36.076700 -115.161258 179 2157ft 9kts
03-Jun-17 17:21 36.076366 -115.147713 90 2108ft 143kts
03-Jun-17 17:22 36.077937 -115.089582 87 4377ft 171kts
03-Jun-17 17:23 36.081487 -115.019428 87 6042ft 242kts
03-Jun-17 17:24 36.085822 -114.925527 87 7010ft 286kts
03-Jun-17 17:25 36.090989 -114.828271 87 7015ft 287kts
03-Jun-17 17:26 36.096565 -114.729843 87 7029ft 288kts
03-Jun-17 17:27 36.102342 -114.628971 87 9269ft 301kts
03-Jun-17 17:28 36.107792 -114.520608 87 11101ft 346kts
03-Jun-17 17:29 36.122342 -114.397246 77 12742ft 381kts
03-Jun-17 17:30 36.143760 -114.272724 78 14820ft 391kts
03-Jun-17 17:31 36.165720 -114.139628 79 16807ft 402kts
03-Jun-17 17:32 36.188056 -114.002738 78 18657ft 413kts
03-Jun-17 17:33 36.210778 -113.862406 78 20388ft 423kts
03-Jun-17 17:34 36.233740 -113.719474 78 21998ft 432kts
03-Jun-17 17:35 36.256996 -113.574078 78 23492ft 441kts
03-Jun-17 17:36 36.280366 -113.426048 78 24883ft 450kts
03-Jun-17 17:37 36.303920 -113.277615 79 26164ft 457kts
03-Jun-17 17:38 36.346083 -113.130009 65 27345ft 465kts
03-Jun-17 17:39 36.397807 -112.984838 65 28425ft 472kts
03-Jun-17 17:40 36.450620 -112.835800 64 29529ft 475kts
03-Jun-17 17:41 36.501813 -112.690634 64 31410ft 455kts
03-Jun-17 17:42 36.552399 -112.546521 64 32383ft 456kts
03-Jun-17 17:43 36.602745 -112.402400 64 33373ft 455kts
03-Jun-17 17:44 36.652519 -112.260471 64 34266ft 454kts
03-Jun-17 17:45 36.702154 -112.117178 64 35110ft 451kts
03-Jun-17 17:46 36.751111 -111.975039 64 35057ft 448kts
03-Jun-17 17:47 36.799819 -111.832949 64 35031ft 449kts
03-Jun-17 17:48 36.848388 -111.690585 64 35031ft 449kts
03-Jun-17 17:49 36.896289 -111.549513 64 35030ft 449kts
03-Jun-17 17:50 36.945389 -111.407255 62 35029ft 448kts
03-Jun-17 17:51 36.995951 -111.268636 64 35016ft 449kts
03-Jun-17 17:52 37.047301 -111.126232 64 35003ft 452kts
03-Jun-17 17:53 37.098601 -110.983117 63 35033ft 455kts
03-Jun-17 17:54 37.146353 -110.849285 63 35086ft 454kts
03-Jun-17 17:55 37.197110 -110.706381 63 35071ft 452kts
03-Jun-17 17:56 37.247553 -110.563688 63 35079ft 451kts
03-Jun-17 17:57 37.297511 -110.421700 63 35152ft 450kts
03-Jun-17 17:58 37.342795 -110.293351 64 35164ft 450kts
03-Jun-17 17:59 37.392481 -110.151309 64 35165ft 450kts
03-Jun-17 18:00 37.440659 -110.012486 64 35169ft 450kts
03-Jun-17 18:01 37.488488 -109.874024 64 35176ft 450kts
03-Jun-17 18:02 37.535925 -109.736055 64 35182ft 450kts
03-Jun-17 18:03 37.583271 -109.597710 63 35185ft 451kts
03-Jun-17 18:04 37.631245 -109.456860 63 35183ft 450kts
03-Jun-17 18:05 37.670803 -109.340251 64 35180ft 450kts
03-Jun-17 18:06 37.718377 -109.200771 64 35178ft 450kts
03-Jun-17 18:07 37.766261 -109.058248 64 35195ft 449kts
03-Jun-17 18:08 37.815742 -108.917450 56 35199ft 443kts
03-Jun-17 18:09 37.879533 -108.786605 54 35154ft 440kts
03-Jun-17 18:10 37.943543 -108.655245 55 35134ft 439kts
03-Jun-17 18:11 38.007105 -108.524291 54 35136ft 439kts
03-Jun-17 18:12 38.070446 -108.393247 54 35221ft 439kts
03-Jun-17 18:13 38.119775 -108.291626 55 35285ft 440kts
03-Jun-17 18:14 38.183012 -108.160175 56 35246ft 441kts
03-Jun-17 18:15 38.246582 -108.027185 55 35151ft 441kts
03-Jun-17 18:16 38.309575 -107.894855 55 35149ft 441kts
03-Jun-17 18:17 38.372332 -107.762479 55 35147ft 441kts
03-Jun-17 18:18 38.435365 -107.628971 55 35147ft 441kts
03-Jun-17 18:19 38.496825 -107.493936 56 35151ft 441kts
03-Jun-17 18:20 38.557314 -107.358866 56 35219ft 441kts
03-Jun-17 18:21 38.616554 -107.227237 57 35258ft 441kts
03-Jun-17 18:22 38.676998 -107.091204 57 35256ft 441kts
03-Jun-17 18:23 38.737279 -106.954936 57 35255ft 441kts
03-Jun-17 18:24 38.797364 -106.818513 57 35263ft 441kts
03-Jun-17 18:25 38.857307 -106.681888 57 35317ft 441kts
03-Jun-17 18:26 38.919306 -106.547381 55 35405ft 440kts
03-Jun-17 18:27 38.981302 -106.413023 55 34295ft 437kts
03-Jun-17 18:28 39.037713 -106.290533 57 31849ft 441kts
03-Jun-17 18:29 39.099028 -106.155233 58 29102ft 443kts
03-Jun-17 18:30 39.152158 -106.035532 58 27124ft 433kts
03-Jun-17 18:31 39.210627 -105.902808 59 24840ft 422kts
03-Jun-17 18:32 39.267310 -105.773578 59 22576ft 410kts
03-Jun-17 18:33 39.321470 -105.649723 59 20400ft 397kts
03-Jun-17 18:34 39.370737 -105.537106 59 19524ft 355kts
03-Jun-17 18:35 39.397200 -105.432685 85 18779ft 321kts
03-Jun-17 18:36 39.401306 -105.335324 85 17407ft 315kts
03-Jun-17 18:37 39.405920 -105.239732 86 16047ft 309kts
03-Jun-17 18:38 39.410668 -105.134876 86 14541ft 303kts
03-Jun-17 18:39 39.414931 -105.037337 85 13607ft 282kts
03-Jun-17 18:40 39.419097 -104.942090 82 12942ft 254kts
03-Jun-17 18:41 39.426802 -104.854513 80 11986ft 247kts
03-Jun-17 18:42 39.434505 -104.767954 76 11054ft 246kts
03-Jun-17 18:43 39.461957 -104.691576 31 11015ft 225kts
03-Jun-17 18:44 39.517135 -104.670039 14 11023ft 218kts
03-Jun-17 18:45 39.576182 -104.663268 0 11020ft 216kts
03-Jun-17 18:46 39.630295 -104.663055 1 10130ft 182kts
03-Jun-17 18:47 39.679227 -104.662385 1 8492ft 178kts
03-Jun-17 18:48 39.727842 -104.661785 1 7371ft 174kts
03-Jun-17 18:49 39.768308 -104.661314 1 6606ft 132kts
03-Jun-17 18:50 39.805086 -104.660884 0 5909ft 134kts
03-Jun-17 18:51 39.840157 -104.660393 0 5411ft 85kts
03-Jun-17 18:52 39.849439 -104.661881 330 5404ft 13kts
03-Jun-17 18:53 39.852034 -104.664065 271 5413ft 17kts
03-Jun-17 18:54 39.852773 -104.670936 271 5402ft 19kts
03-Jun-17 18:55 39.853242 -104.672534 358 5399ft 2kts
03-Jun-17 18:56 39.853326 -104.672534 359 5399ft 0kts
03-Jun-17 18:57 39.853326 -104.672534 359 5399ft 0kts

Navigation Log

Ident Type
Flight plan parsing failed, navigation log unavailable